sensor_id;sensor_type;location;lat;lon;timestamp;pressure;altitude;pressure_sealevel;temperature;humidity
29839;BME280;18669;53.356;-1.464;2023-08-06T00:01:19;100354.88;;;11.69;100.00
29839;BME280;18669;53.356;-1.464;2023-08-06T00:04:05;100350.41;;;11.71;100.00
29839;BME280;18669;53.356;-1.464;2023-08-06T00:06:50;100364.41;;;11.73;100.00
29839;BME280;18669;53.356;-1.464;2023-08-06T00:09:35;100366.06;;;11.77;100.00
29839;BME280;18669;53.356;-1.464;2023-08-06T00:12:20;100362.59;;;11.75;100.00
29839;BME280;18669;53.356;-1.464;2023-08-06T00:15:05;100356.41;;;11.76;100.00
29839;BME280;18669;53.356;-1.464;2023-08-06T00:17:50;100364.44;;;11.71;100.00
29839;BME280;18669;53.356;-1.464;2023-08-06T00:20:35;100363.59;;;11.71;100.00
29839;BME280;18669;53.356;-1.464;2023-08-06T00:23:20;100370.53;;;11.73;100.00
29839;BME280;18669;53.356;-1.464;2023-08-06T00:26:06;100373.16;;;11.73;100.00
29839;BME280;18669;53.356;-1.464;2023-08-06T00:28:51;100377.50;;;11.76;100.00
29839;BME280;18669;53.356;-1.464;2023-08-06T00:31:36;100367.94;;;11.72;100.00
29839;BME280;18669;53.356;-1.464;2023-08-06T00:34:21;100377.34;;;11.81;100.00
29839;BME280;18669;53.356;-1.464;2023-08-06T00:37:06;100380.13;;;11.76;100.00
29839;BME280;18669;53.356;-1.464;2023-08-06T00:39:51;100386.34;;;11.73;100.00
29839;BME280;18669;53.356;-1.464;2023-08-06T00:42:36;100381.97;;;11.72;100.00
29839;BME280;18669;53.356;-1.464;2023-08-06T00:45:21;100383.84;;;11.69;100.00
29839;BME280;18669;53.356;-1.464;2023-08-06T00:48:07;100370.81;;;11.64;100.00
29839;BME280;18669;53.356;-1.464;2023-08-06T00:50:52;100386.50;;;11.69;100.00
29839;BME280;18669;53.356;-1.464;2023-08-06T00:53:40;100377.44;;;11.77;100.00
29839;BME280;18669;53.356;-1.464;2023-08-06T00:56:25;100389.03;;;11.72;100.00
29839;BME280;18669;53.356;-1.464;2023-08-06T00:59:10;100401.34;;;11.71;100.00
29839;BME280;18669;53.356;-1.464;2023-08-06T01:01:56;100392.91;;;11.60;100.00
29839;BME280;18669;53.356;-1.464;2023-08-06T01:04:41;100398.09;;;11.61;100.00
29839;BME280;18669;53.356;-1.464;2023-08-06T01:10:44;100402.16;;;11.73;100.00
29839;BME280;18669;53.356;-1.464;2023-08-06T01:16:20;100407.06;;;11.56;100.00
29839;BME280;18669;53.356;-1.464;2023-08-06T01:19:18;100406.06;;;11.60;100.00
29839;BME280;18669;53.356;-1.464;2023-08-06T01:22:03;100408.19;;;11.47;100.00
29839;BME280;18669;53.356;-1.464;2023-08-06T01:24:50;100398.41;;;11.51;100.00
29839;BME280;18669;53.356;-1.464;2023-08-06T01:27:48;100404.44;;;11.54;100.00
29839;BME280;18669;53.356;-1.464;2023-08-06T01:30:33;100419.72;;;11.43;100.00
29839;BME280;18669;53.356;-1.464;2023-08-06T01:33:22;100417.84;;;11.46;100.00
29839;BME280;18669;53.356;-1.464;2023-08-06T01:36:07;100419.88;;;11.37;100.00
29839;BME280;18669;53.356;-1.464;2023-08-06T01:38:53;100417.41;;;11.30;100.00
29839;BME280;18669;53.356;-1.464;2023-08-06T01:41:38;100422.53;;;11.35;100.00
29839;BME280;18669;53.356;-1.464;2023-08-06T01:44:23;100426.97;;;11.34;100.00
29839;BME280;18669;53.356;-1.464;2023-08-06T01:47:08;100429.59;;;11.34;100.00
29839;BME280;18669;53.356;-1.464;2023-08-06T01:49:53;100433.13;;;11.33;100.00
29839;BME280;18669;53.356;-1.464;2023-08-06T01:52:37;100430.44;;;11.35;100.00
29839;BME280;18669;53.356;-1.464;2023-08-06T01:55:23;100437.41;;;11.38;100.00
29839;BME280;18669;53.356;-1.464;2023-08-06T01:58:07;100439.13;;;11.39;100.00
29839;BME280;18669;53.356;-1.464;2023-08-06T02:00:52;100434.78;;;11.38;100.00
29839;BME280;18669;53.356;-1.464;2023-08-06T02:03:37;100432.25;;;11.33;100.00
29839;BME280;18669;53.356;-1.464;2023-08-06T02:06:22;100442.59;;;11.41;100.00
29839;BME280;18669;53.356;-1.464;2023-08-06T02:09:07;100441.72;;;11.40;100.00
29839;BME280;18669;53.356;-1.464;2023-08-06T02:11:52;100441.78;;;11.39;100.00
29839;BME280;18669;53.356;-1.464;2023-08-06T02:14:37;100436.75;;;11.29;100.00
29839;BME280;18669;53.356;-1.464;2023-08-06T02:17:22;100445.41;;;11.33;100.00
29839;BME280;18669;53.356;-1.464;2023-08-06T02:20:07;100449.75;;;11.36;100.00
29839;BME280;18669;53.356;-1.464;2023-08-06T02:22:52;100458.44;;;11.39;100.00
29839;BME280;18669;53.356;-1.464;2023-08-06T02:25:37;100452.41;;;11.34;100.00
29839;BME280;18669;53.356;-1.464;2023-08-06T02:28:21;100442.97;;;11.27;100.00
29839;BME280;18669;53.356;-1.464;2023-08-06T02:31:06;100448.03;;;11.34;100.00
29839;BME280;18669;53.356;-1.464;2023-08-06T02:33:51;100449.69;;;11.39;100.00
29839;BME280;18669;53.356;-1.464;2023-08-06T02:36:38;100444.44;;;11.37;100.00
29839;BME280;18669;53.356;-1.464;2023-08-06T02:39:23;100447.13;;;11.36;100.00
29839;BME280;18669;53.356;-1.464;2023-08-06T02:42:07;100448.03;;;11.34;100.00
29839;BME280;18669;53.356;-1.464;2023-08-06T02:44:53;100443.53;;;11.38;100.00
29839;BME280;18669;53.356;-1.464;2023-08-06T02:47:40;100439.31;;;11.32;100.00
29839;BME280;18669;53.356;-1.464;2023-08-06T02:50:25;100445.41;;;11.34;100.00
29839;BME280;18669;53.356;-1.464;2023-08-06T02:53:10;100439.31;;;11.32;100.00
29839;BME280;18669;53.356;-1.464;2023-08-06T02:55:55;100449.97;;;11.28;100.00
29839;BME280;18669;53.356;-1.464;2023-08-06T02:58:40;100450.06;;;11.25;100.00
29839;BME280;18669;53.356;-1.464;2023-08-06T03:01:25;100450.13;;;11.22;100.00
29839;BME280;18669;53.356;-1.464;2023-08-06T03:04:11;100453.66;;;11.21;100.00
29839;BME280;18669;53.356;-1.464;2023-08-06T03:06:56;100442.31;;;11.18;100.00
29839;BME280;18669;53.356;-1.464;2023-08-06T03:09:41;100455.34;;;11.23;100.00
29839;BME280;18669;53.356;-1.464;2023-08-06T03:12:26;100450.19;;;11.18;100.00
29839;BME280;18669;53.356;-1.464;2023-08-06T03:15:11;100454.72;;;11.13;100.00
29839;BME280;18669;53.356;-1.464;2023-08-06T03:17:56;100453.03;;;11.11;100.00
29839;BME280;18669;53.356;-1.464;2023-08-06T03:20:41;100451.41;;;11.05;100.00
29839;BME280;18669;53.356;-1.464;2023-08-06T03:23:26;100453.97;;;11.08;100.00
29839;BME280;18669;53.356;-1.464;2023-08-06T03:26:11;100455.75;;;11.08;100.00
29839;BME280;18669;53.356;-1.464;2023-08-06T03:28:56;100461.03;;;11.06;100.00
29839;BME280;18669;53.356;-1.464;2023-08-06T03:31:40;100448.03;;;11.00;100.00
29839;BME280;18669;53.356;-1.464;2023-08-06T03:34:25;100454.94;;;11.06;100.00
29839;BME280;18669;53.356;-1.464;2023-08-06T03:37:10;100449.72;;;11.02;100.00
29839;BME280;18669;53.356;-1.464;2023-08-06T03:39:55;100453.34;;;10.98;100.00
29839;BME280;18669;53.356;-1.464;2023-08-06T03:42:40;100457.91;;;10.92;100.00
29839;BME280;18669;53.356;-1.464;2023-08-06T03:45:25;100463.38;;;10.82;100.00
29839;BME280;18669;53.356;-1.464;2023-08-06T03:48:09;100464.44;;;10.75;100.00
29839;BME280;18669;53.356;-1.464;2023-08-06T03:50:54;100466.22;;;10.74;100.00
29839;BME280;18669;53.356;-1.464;2023-08-06T03:53:39;100458.41;;;10.71;100.00
29839;BME280;18669;53.356;-1.464;2023-08-06T03:56:24;100455.91;;;10.64;100.00
29839;BME280;18669;53.356;-1.464;2023-08-06T03:59:09;100456.09;;;10.56;100.00
29839;BME280;18669;53.356;-1.464;2023-08-06T04:01:54;100457.06;;;10.52;100.00
29839;BME280;18669;53.356;-1.464;2023-08-06T04:04:39;100459.06;;;10.42;100.00
29839;BME280;18669;53.356;-1.464;2023-08-06T04:07:25;100464.31;;;10.42;100.00
29839;BME280;18669;53.356;-1.464;2023-08-06T04:10:09;100472.44;;;10.31;100.00
29839;BME280;18669;53.356;-1.464;2023-08-06T04:12:54;100476.88;;;10.27;100.00
29839;BME280;18669;53.356;-1.464;2023-08-06T04:15:39;100470.00;;;10.22;100.00
29839;BME280;18669;53.356;-1.464;2023-08-06T04:18:24;100473.34;;;10.28;100.00
29839;BME280;18669;53.356;-1.464;2023-08-06T04:21:09;100476.78;;;10.32;100.00
29839;BME280;18669;53.356;-1.464;2023-08-06T04:23:54;100476.78;;;10.32;100.00
29839;BME280;18669;53.356;-1.464;2023-08-06T04:26:38;100483.72;;;10.35;100.00
29839;BME280;18669;53.356;-1.464;2023-08-06T04:29:23;100474.16;;;10.32;100.00
29839;BME280;18669;53.356;-1.464;2023-08-06T04:32:09;100478.25;;;10.45;100.00
29839;BME280;18669;53.356;-1.464;2023-08-06T04:34:55;100476.44;;;10.49;100.00
29839;BME280;18669;53.356;-1.464;2023-08-06T04:37:40;100470.47;;;10.41;100.00
29839;BME280;18669;53.356;-1.464;2023-08-06T04:40:26;100480.88;;;10.47;100.00
29839;BME280;18669;53.356;-1.464;2023-08-06T04:43:10;100479.91;;;10.50;100.00
29839;BME280;18669;53.356;-1.464;2023-08-06T04:45:55;100482.41;;;10.56;100.00
29839;BME280;18669;53.356;-1.464;2023-08-06T04:48:40;100477.91;;;10.61;100.00
29839;BME280;18669;53.356;-1.464;2023-08-06T04:51:25;100484.69;;;10.71;100.00
29839;BME280;18669;53.356;-1.464;2023-08-06T04:54:10;100484.66;;;10.73;100.00
29839;BME280;18669;53.356;-1.464;2023-08-06T04:56:55;100479.38;;;10.73;100.00
29839;BME280;18669;53.356;-1.464;2023-08-06T04:59:40;100479.38;;;10.73;100.00
29839;BME280;18669;53.356;-1.464;2023-08-06T05:02:25;100491.50;;;10.80;100.00
29839;BME280;18669;53.356;-1.464;2023-08-06T05:05:10;100491.38;;;10.85;100.00
29839;BME280;18669;53.356;-1.464;2023-08-06T05:07:56;100482.56;;;10.87;100.00
29839;BME280;18669;53.356;-1.464;2023-08-06T05:10:43;100495.34;;;11.03;100.00
29839;BME280;18669;53.356;-1.464;2023-08-06T05:13:28;100495.38;;;11.01;100.00
29839;BME280;18669;53.356;-1.464;2023-08-06T05:16:13;100499.63;;;11.07;100.00
29839;BME280;18669;53.356;-1.464;2023-08-06T05:18:58;100507.50;;;11.09;100.00
29839;BME280;18669;53.356;-1.464;2023-08-06T05:21:42;100500.31;;;11.15;100.00
29839;BME280;18669;53.356;-1.464;2023-08-06T05:24:27;100504.63;;;11.18;100.00
29839;BME280;18669;53.356;-1.464;2023-08-06T05:27:12;100502.75;;;11.23;100.00
29839;BME280;18669;53.356;-1.464;2023-08-06T05:29:57;100504.38;;;11.29;100.00
29839;BME280;18669;53.356;-1.464;2023-08-06T05:32:42;100500.78;;;11.31;100.00
29839;BME280;18669;53.356;-1.464;2023-08-06T05:35:27;100503.09;;;11.44;100.00
29839;BME280;18669;53.356;-1.464;2023-08-06T05:38:12;100502.22;;;11.43;100.00
29839;BME280;18669;53.356;-1.464;2023-08-06T05:40:57;100518.69;;;11.52;100.00
29839;BME280;18669;53.356;-1.464;2023-08-06T05:43:42;100523.84;;;11.56;100.00
29839;BME280;18669;53.356;-1.464;2023-08-06T05:46:27;100529.91;;;11.60;100.00
29839;BME280;18669;53.356;-1.464;2023-08-06T05:49:12;100528.88;;;11.66;100.00
29839;BME280;18669;53.356;-1.464;2023-08-06T05:51:58;100531.28;;;11.75;100.00
29839;BME280;18669;53.356;-1.464;2023-08-06T05:54:43;100543.09;;;11.91;100.00
29839;BME280;18669;53.356;-1.464;2023-08-06T05:57:28;100541.09;;;12.01;100.00
29839;BME280;18669;53.356;-1.464;2023-08-06T06:00:12;100541.81;;;12.08;100.00
29839;BME280;18669;53.356;-1.464;2023-08-06T06:02:57;100539.72;;;12.19;100.00
29839;BME280;18669;53.356;-1.464;2023-08-06T06:05:42;100545.63;;;12.29;100.00
29839;BME280;18669;53.356;-1.464;2023-08-06T06:08:27;100545.22;;;12.42;100.00
29839;BME280;18669;53.356;-1.464;2023-08-06T06:11:12;100545.22;;;12.43;100.00
29839;BME280;18669;53.356;-1.464;2023-08-06T06:13:57;100544.97;;;12.51;100.00
29839;BME280;18669;53.356;-1.464;2023-08-06T06:16:42;100553.44;;;12.62;100.00
29839;BME280;18669;53.356;-1.464;2023-08-06T06:19:27;100547.97;;;12.68;100.00
29839;BME280;18669;53.356;-1.464;2023-08-06T06:22:12;100554.56;;;12.82;100.00
29839;BME280;18669;53.356;-1.464;2023-08-06T06:24:56;100559.81;;;12.83;100.00
29839;BME280;18669;53.356;-1.464;2023-08-06T06:27:41;100560.56;;;12.89;100.00
29839;BME280;18669;53.356;-1.464;2023-08-06T06:30:26;100560.31;;;12.96;100.00
29839;BME280;18669;53.356;-1.464;2023-08-06T06:33:11;100561.69;;;13.08;100.00
29839;BME280;18669;53.356;-1.464;2023-08-06T06:35:56;100567.72;;;13.12;100.00
29839;BME280;18669;53.356;-1.464;2023-08-06T06:38:41;100572.69;;;13.23;100.00
29839;BME280;18669;53.356;-1.464;2023-08-06T06:41:29;100564.16;;;13.41;100.00
29839;BME280;18669;53.356;-1.464;2023-08-06T06:44:17;100573.75;;;13.44;100.00
29839;BME280;18669;53.356;-1.464;2023-08-06T06:47:04;100574.13;;;13.85;100.00
29839;BME280;18669;53.356;-1.464;2023-08-06T06:50:04;100569.53;;;13.91;100.00
29839;BME280;18669;53.356;-1.464;2023-08-06T06:52:49;100570.63;;;14.10;100.00
29839;BME280;18669;53.356;-1.464;2023-08-06T06:55:34;100572.88;;;14.21;100.00
29839;BME280;18669;53.356;-1.464;2023-08-06T06:58:19;100572.63;;;14.27;100.00
29839;BME280;18669;53.356;-1.464;2023-08-06T07:01:04;100570.53;;;14.36;100.00
29839;BME280;18669;53.356;-1.464;2023-08-06T07:03:48;100581.78;;;14.42;100.00
29839;BME280;18669;53.356;-1.464;2023-08-06T07:06:33;100582.53;;;14.46;100.00
29839;BME280;18669;53.356;-1.464;2023-08-06T07:09:18;100576.72;;;14.36;100.00
29839;BME280;18669;53.356;-1.464;2023-08-06T07:12:03;100584.88;;;14.54;100.00
29839;BME280;18669;53.356;-1.464;2023-08-06T07:14:48;100590.88;;;14.83;100.00
29839;BME280;18669;53.356;-1.464;2023-08-06T07:17:34;100585.88;;;14.75;100.00
29839;BME280;18669;53.356;-1.464;2023-08-06T07:20:18;100588.47;;;14.76;100.00
29839;BME280;18669;53.356;-1.464;2023-08-06T07:23:03;100587.72;;;14.73;100.00
29839;BME280;18669;53.356;-1.464;2023-08-06T07:25:49;100588.28;;;14.81;100.00
29839;BME280;18669;53.356;-1.464;2023-08-06T07:28:33;100585.41;;;14.87;100.00
29839;BME280;18669;53.356;-1.464;2023-08-06T07:31:18;100584.72;;;15.04;100.00
29839;BME280;18669;53.356;-1.464;2023-08-06T07:34:03;100588.31;;;15.26;100.00
29839;BME280;18669;53.356;-1.464;2023-08-06T07:36:48;100588.34;;;15.24;100.00
29839;BME280;18669;53.356;-1.464;2023-08-06T07:39:33;100588.22;;;15.27;100.00
29839;BME280;18669;53.356;-1.464;2023-08-06T07:42:18;100592.44;;;15.33;100.00
29839;BME280;18669;53.356;-1.464;2023-08-06T07:45:05;100586.69;;;15.64;100.00
29839;BME280;18669;53.356;-1.464;2023-08-06T07:47:50;100592.91;;;15.43;100.00
29839;BME280;18669;53.356;-1.464;2023-08-06T07:50:35;100604.06;;;15.51;100.00
29839;BME280;18669;53.356;-1.464;2023-08-06T07:53:21;100605.69;;;15.33;100.00
29839;BME280;18669;53.356;-1.464;2023-08-06T07:56:06;100609.19;;;15.33;100.00
29839;BME280;18669;53.356;-1.464;2023-08-06T07:58:51;100612.81;;;15.53;100.00
29839;BME280;18669;53.356;-1.464;2023-08-06T08:01:36;100607.56;;;15.72;100.00
29839;BME280;18669;53.356;-1.464;2023-08-06T08:04:21;100621.00;;;15.69;100.00
29839;BME280;18669;53.356;-1.464;2023-08-06T08:07:09;100620.13;;;15.69;100.00
29839;BME280;18669;53.356;-1.464;2023-08-06T08:09:54;100620.69;;;15.55;100.00
29839;BME280;18669;53.356;-1.464;2023-08-06T08:12:39;100621.47;;;15.36;100.00
29839;BME280;18669;53.356;-1.464;2023-08-06T08:15:25;100634.09;;;15.29;100.00
29839;BME280;18669;53.356;-1.464;2023-08-06T08:18:11;100634.22;;;15.26;100.00
29839;BME280;18669;53.356;-1.464;2023-08-06T08:20:56;100618.44;;;15.23;100.00
29839;BME280;18669;53.356;-1.464;2023-08-06T08:23:41;100620.50;;;15.37;100.00
29839;BME280;18669;53.356;-1.464;2023-08-06T08:26:28;100643.19;;;15.44;100.00
29839;BME280;18669;53.356;-1.464;2023-08-06T08:29:13;100633.47;;;15.23;100.00
29839;BME280;18669;53.356;-1.464;2023-08-06T08:31:58;100635.66;;;15.35;100.00
29839;BME280;18669;53.356;-1.464;2023-08-06T08:34:46;100621.41;;;15.58;100.00
29839;BME280;18669;53.356;-1.464;2023-08-06T08:37:32;100627.81;;;15.75;100.00
29839;BME280;18669;53.356;-1.464;2023-08-06T08:40:17;100628.34;;;15.83;100.00
29839;BME280;18669;53.356;-1.464;2023-08-06T08:43:03;100623.91;;;15.84;100.00
29839;BME280;18669;53.356;-1.464;2023-08-06T08:45:53;100624.00;;;16.03;100.00
29839;BME280;18669;53.356;-1.464;2023-08-06T08:48:45;100624.53;;;16.11;100.00
29839;BME280;18669;53.356;-1.464;2023-08-06T08:51:33;100626.56;;;16.65;100.00
29839;BME280;18669;53.356;-1.464;2023-08-06T08:54:23;100611.00;;;17.32;92.50
29839;BME280;18669;53.356;-1.464;2023-08-06T08:57:08;100622.72;;;17.82;82.76
29839;BME280;18669;53.356;-1.464;2023-08-06T08:59:53;100627.03;;;18.20;78.10
29839;BME280;18669;53.356;-1.464;2023-08-06T09:02:39;100624.84;;;19.10;74.00
29839;BME280;18669;53.356;-1.464;2023-08-06T09:05:27;100619.94;;;19.65;66.44
29839;BME280;18669;53.356;-1.464;2023-08-06T09:08:18;100619.88;;;20.55;65.48
29839;BME280;18669;53.356;-1.464;2023-08-06T09:11:05;100619.00;;;21.25;63.11
29839;BME280;18669;53.356;-1.464;2023-08-06T09:13:53;100628.94;;;21.51;60.94
29839;BME280;18669;53.356;-1.464;2023-08-06T09:16:38;100633.03;;;21.01;59.90
29839;BME280;18669;53.356;-1.464;2023-08-06T09:19:23;100630.41;;;21.14;58.00
29839;BME280;18669;53.356;-1.464;2023-08-06T09:22:08;100631.44;;;20.41;56.69
29839;BME280;18669;53.356;-1.464;2023-08-06T09:24:57;100626.09;;;20.55;58.01
29839;BME280;18669;53.356;-1.464;2023-08-06T09:27:46;100630.97;;;20.78;57.80
29839;BME280;18669;53.356;-1.464;2023-08-06T09:30:33;100629.88;;;21.64;56.54
29839;BME280;18669;53.356;-1.464;2023-08-06T09:33:19;100637.22;;;22.27;56.50
29839;BME280;18669;53.356;-1.464;2023-08-06T09:36:10;100635.63;;;22.50;50.27
29839;BME280;18669;53.356;-1.464;2023-08-06T09:38:56;100642.47;;;21.89;52.96
29839;BME280;18669;53.356;-1.464;2023-08-06T09:41:42;100641.81;;;22.12;50.71
29839;BME280;18669;53.356;-1.464;2023-08-06T09:44:31;100647.31;;;22.49;51.11
29839;BME280;18669;53.356;-1.464;2023-08-06T09:47:16;100652.75;;;22.09;48.49
29839;BME280;18669;53.356;-1.464;2023-08-06T09:50:02;100646.22;;;22.13;48.87
29839;BME280;18669;53.356;-1.464;2023-08-06T09:52:47;100650.34;;;22.44;49.01
29839;BME280;18669;53.356;-1.464;2023-08-06T09:55:34;100650.50;;;22.67;50.69
29839;BME280;18669;53.356;-1.464;2023-08-06T09:58:20;100650.53;;;23.42;48.15
29839;BME280;18669;53.356;-1.464;2023-08-06T10:01:09;100655.97;;;23.16;47.11
29839;BME280;18669;53.356;-1.464;2023-08-06T10:04:03;100663.81;;;23.19;48.94
29839;BME280;18669;53.356;-1.464;2023-08-06T10:06:48;100661.84;;;23.58;46.69
29839;BME280;18669;53.356;-1.464;2023-08-06T10:09:33;100649.72;;;24.12;45.17
29839;BME280;18669;53.356;-1.464;2023-08-06T10:12:18;100666.78;;;23.51;44.87
29839;BME280;18669;53.356;-1.464;2023-08-06T10:15:04;100656.53;;;23.81;46.06
29839;BME280;18669;53.356;-1.464;2023-08-06T10:17:51;100658.72;;;23.76;45.59
29839;BME280;18669;53.356;-1.464;2023-08-06T10:20:37;100663.19;;;23.64;45.40
29839;BME280;18669;53.356;-1.464;2023-08-06T10:23:33;100662.81;;;24.28;43.36
29839;BME280;18669;53.356;-1.464;2023-08-06T10:26:19;100660.13;;;23.57;43.88
29839;BME280;18669;53.356;-1.464;2023-08-06T10:29:35;100668.69;;;23.62;43.69
29839;BME280;18669;53.356;-1.464;2023-08-06T10:32:20;100667.50;;;23.42;46.14
29839;BME280;18669;53.356;-1.464;2023-08-06T10:35:06;100666.78;;;22.90;47.01
29839;BME280;18669;53.356;-1.464;2023-08-06T10:37:51;100666.47;;;22.43;47.78
29839;BME280;18669;53.356;-1.464;2023-08-06T10:40:37;100657.81;;;22.65;49.99
29839;BME280;18669;53.356;-1.464;2023-08-06T10:46:27;100653.50;;;23.13;46.94
29839;BME280;18669;53.356;-1.464;2023-08-06T10:49:13;100651.69;;;22.63;46.35
29839;BME280;18669;53.356;-1.464;2023-08-06T10:52:01;100656.09;;;22.51;46.33
29839;BME280;18669;53.356;-1.464;2023-08-06T10:54:46;100661.06;;;22.44;47.76
29839;BME280;18669;53.356;-1.464;2023-08-06T10:57:31;100658.72;;;23.40;45.65
29839;BME280;18669;53.356;-1.464;2023-08-06T11:00:16;100647.00;;;23.41;45.28
29839;BME280;18669;53.356;-1.464;2023-08-06T11:03:03;100661.31;;;23.53;44.72
29839;BME280;18669;53.356;-1.464;2023-08-06T11:05:51;100660.88;;;23.59;43.50
29839;BME280;18669;53.356;-1.464;2023-08-06T11:08:38;100657.28;;;23.23;45.01
29839;BME280;18669;53.356;-1.464;2023-08-06T11:11:23;100661.25;;;23.42;45.21
29839;BME280;18669;53.356;-1.464;2023-08-06T11:14:14;100660.28;;;24.03;45.39
29839;BME280;18669;53.356;-1.464;2023-08-06T11:16:59;100668.16;;;23.81;43.30
29839;BME280;18669;53.356;-1.464;2023-08-06T11:19:44;100660.66;;;23.74;43.42
29839;BME280;18669;53.356;-1.464;2023-08-06T11:22:29;100666.66;;;24.02;42.31
29839;BME280;18669;53.356;-1.464;2023-08-06T11:25:14;100675.03;;;23.61;43.90
29839;BME280;18669;53.356;-1.464;2023-08-06T11:28:00;100658.84;;;24.10;43.51
29839;BME280;18669;53.356;-1.464;2023-08-06T11:30:45;100668.50;;;23.52;43.00
29839;BME280;18669;53.356;-1.464;2023-08-06T11:33:30;100667.13;;;23.22;44.17
29839;BME280;18669;53.356;-1.464;2023-08-06T11:36:15;100670.81;;;22.58;45.23
29839;BME280;18669;53.356;-1.464;2023-08-06T11:39:01;100669.69;;;22.22;45.60
29839;BME280;18669;53.356;-1.464;2023-08-06T11:41:47;100667.44;;;22.29;46.11
29839;BME280;18669;53.356;-1.464;2023-08-06T11:44:36;100669.09;;;23.07;44.57
29839;BME280;18669;53.356;-1.464;2023-08-06T11:47:20;100665.59;;;23.31;43.45
29839;BME280;18669;53.356;-1.464;2023-08-06T11:50:06;100652.97;;;23.45;42.58
29839;BME280;18669;53.356;-1.464;2023-08-06T11:52:58;100663.78;;;24.39;41.02
29839;BME280;18669;53.356;-1.464;2023-08-06T11:55:44;100660.13;;;23.93;41.01
29839;BME280;18669;53.356;-1.464;2023-08-06T11:58:29;100666.28;;;23.71;43.84
29839;BME280;18669;53.356;-1.464;2023-08-06T12:01:13;100658.44;;;23.67;41.91
29839;BME280;18669;53.356;-1.464;2023-08-06T12:04:08;100657.56;;;24.95;41.39
29839;BME280;18669;53.356;-1.464;2023-08-06T12:06:52;100650.19;;;26.06;38.53
29839;BME280;18669;53.356;-1.464;2023-08-06T12:09:37;100650.91;;;26.92;37.77
29839;BME280;18669;53.356;-1.464;2023-08-06T12:12:23;100655.03;;;26.96;36.43
29839;BME280;18669;53.356;-1.464;2023-08-06T12:15:11;100662.56;;;26.92;35.74
29839;BME280;18669;53.356;-1.464;2023-08-06T12:17:56;100665.03;;;26.01;38.40
29839;BME280;18669;53.356;-1.464;2023-08-06T12:20:41;100657.38;;;25.31;37.97
29839;BME280;18669;53.356;-1.464;2023-08-06T12:23:26;100665.97;;;24.22;40.33
29839;BME280;18669;53.356;-1.464;2023-08-06T12:26:12;100661.31;;;25.15;40.57
29839;BME280;18669;53.356;-1.464;2023-08-06T12:28:57;100660.44;;;25.91;39.10
29839;BME280;18669;53.356;-1.464;2023-08-06T12:31:42;100660.44;;;26.34;38.37
29839;BME280;18669;53.356;-1.464;2023-08-06T12:34:27;100671.75;;;25.85;37.76
29839;BME280;18669;53.356;-1.464;2023-08-06T12:37:12;100662.03;;;25.17;39.10
29839;BME280;18669;53.356;-1.464;2023-08-06T12:39:57;100658.78;;;25.02;40.42
29839;BME280;18669;53.356;-1.464;2023-08-06T12:42:42;100656.94;;;24.46;39.93
29839;BME280;18669;53.356;-1.464;2023-08-06T12:45:27;100664.66;;;23.19;42.18
29839;BME280;18669;53.356;-1.464;2023-08-06T12:48:12;100666.50;;;22.69;44.49
29839;BME280;18669;53.356;-1.464;2023-08-06T12:50:56;100673.97;;;22.12;45.08
29839;BME280;18669;53.356;-1.464;2023-08-06T12:53:41;100668.13;;;21.52;46.07
29839;BME280;18669;53.356;-1.464;2023-08-06T12:56:26;100673.47;;;21.66;46.21
29839;BME280;18669;53.356;-1.464;2023-08-06T12:59:13;100667.72;;;21.30;47.11
29839;BME280;18669;53.356;-1.464;2023-08-06T13:01:57;100677.09;;;21.23;46.52
29839;BME280;18669;53.356;-1.464;2023-08-06T13:04:42;100677.28;;;20.64;47.46
29839;BME280;18669;53.356;-1.464;2023-08-06T13:07:27;100674.00;;;20.30;49.05
29839;BME280;18669;53.356;-1.464;2023-08-06T13:10:12;100671.88;;;20.35;52.17
29839;BME280;18669;53.356;-1.464;2023-08-06T13:12:57;100681.72;;;20.34;50.87
29839;BME280;18669;53.356;-1.464;2023-08-06T13:15:41;100676.88;;;20.41;50.72
29839;BME280;18669;53.356;-1.464;2023-08-06T13:18:26;100683.06;;;20.27;53.07
29839;BME280;18669;53.356;-1.464;2023-08-06T13:21:12;100671.66;;;19.94;51.11
29839;BME280;18669;53.356;-1.464;2023-08-06T13:23:57;100686.63;;;19.81;54.86
29839;BME280;18669;53.356;-1.464;2023-08-06T13:26:42;100668.94;;;19.64;55.05
29839;BME280;18669;53.356;-1.464;2023-08-06T13:29:27;100673.78;;;19.88;55.05
29839;BME280;18669;53.356;-1.464;2023-08-06T13:32:12;100678.94;;;20.21;55.16
29839;BME280;18669;53.356;-1.464;2023-08-06T13:34:58;100670.59;;;21.00;54.36
29839;BME280;18669;53.356;-1.464;2023-08-06T13:37:42;100665.13;;;20.87;52.23
29839;BME280;18669;53.356;-1.464;2023-08-06T13:40:27;100671.13;;;20.76;55.12
29839;BME280;18669;53.356;-1.464;2023-08-06T13:43:12;100682.03;;;20.44;54.51
29839;BME280;18669;53.356;-1.464;2023-08-06T13:45:57;100679.41;;;19.83;55.09
29839;BME280;18669;53.356;-1.464;2023-08-06T13:48:43;100676.53;;;19.86;58.70
29839;BME280;18669;53.356;-1.464;2023-08-06T13:51:28;100673.16;;;19.68;57.67
29839;BME280;18669;53.356;-1.464;2023-08-06T13:54:15;100686.91;;;19.60;61.40
29839;BME280;18669;53.356;-1.464;2023-08-06T13:57:01;100689.63;;;19.28;59.09
29839;BME280;18669;53.356;-1.464;2023-08-06T13:59:46;100693.84;;;19.32;60.70
29839;BME280;18669;53.356;-1.464;2023-08-06T14:02:30;100692.97;;;19.48;62.41
29839;BME280;18669;53.356;-1.464;2023-08-06T14:05:15;100685.81;;;19.48;61.18
29839;BME280;18669;53.356;-1.464;2023-08-06T14:08:00;100698.13;;;19.67;58.77
29839;BME280;18669;53.356;-1.464;2023-08-06T14:10:45;100682.06;;;21.57;54.03
29839;BME280;18669;53.356;-1.464;2023-08-06T14:13:30;100684.09;;;21.53;51.41
29839;BME280;18669;53.356;-1.464;2023-08-06T14:16:15;100694.47;;;20.89;53.95